Time;durP1;ratioP1;P1;durP2;ratioP2;P2;SDS_P1;SDS_P2;PMS_P1;PMS_P2;Temp;Humidity;BMP_temperature;BMP_pressure;BME280_temperature;BME280_humidity;BME280_pressure;Samples;Min_cycle;Max_cycle;Signal;HPM_P1;HPM_P2
2022/01/10 00:00:16;;;;;;;22.05;9.43;;;;;;;20.25;13.52;97341.31;4965482;28;20086;-76
2022/01/10 00:02:44;;;;;;;27.25;10.05;;;;;;;19.77;14.02;97334.13;4966166;28;20129;-75
2022/01/10 00:05:11;;;;;;;21.67;8.73;;;;;;;19.10;14.87;97342.69;4965039;28;20049;-75
2022/01/10 00:07:38;;;;;;;25.77;9.75;;;;;;;19.36;14.55;97347.53;4962119;28;20047;-76
2022/01/10 00:10:04;;;;;;;24.00;7.72;;;;;;;19.10;14.59;97348.25;4963414;28;20043;-76
2022/01/10 00:12:30;;;;;;;23.48;8.00;;;;;;;18.93;14.61;97349.28;4963798;28;20046;-75
2022/01/10 00:14:56;;;;;;;23.67;8.38;;;;;;;19.36;14.56;97346.72;4968843;28;20035;-75
2022/01/10 00:17:22;;;;;;;24.52;8.30;;;;;;;19.46;14.44;97349.38;4974889;28;20043;-76
2022/01/10 00:19:48;;;;;;;21.85;7.70;;;;;;;19.74;14.43;97351.69;4974919;28;20034;-76
2022/01/10 00:22:14;;;;;;;18.35;8.32;;;;;;;19.90;14.17;97357.41;4972483;28;20035;-76
2022/01/10 00:24:41;;;;;;;22.00;8.70;;;;;;;20.24;13.90;97357.25;4983942;28;20038;-75
2022/01/10 00:27:07;;;;;;;26.60;8.70;;;;;;;20.47;13.58;97371.16;4982174;28;20035;-76
2022/01/10 00:29:34;;;;;;;26.60;8.73;;;;;;;20.65;13.61;97366.00;4978330;28;20523;-76
2022/01/10 00:32:01;;;;;;;22.98;8.25;;;;;;;20.56;13.51;97368.59;4979093;28;20035;-76
2022/01/10 00:34:28;;;;;;;23.75;9.27;;;;;;;19.97;13.72;97373.22;4980658;28;20039;-76
2022/01/10 00:36:54;;;;;;;20.92;7.90;;;;;;;19.82;14.05;97375.44;4975880;28;20054;-76
2022/01/10 00:39:21;;;;;;;18.45;7.15;;;;;;;20.12;13.79;97371.00;4973245;28;20442;-76
2022/01/10 00:41:47;;;;;;;22.67;8.57;;;;;;;20.30;13.69;97377.06;4971749;28;20034;-76
2022/01/10 00:44:14;;;;;;;23.42;7.78;;;;;;;20.16;13.60;97380.06;4981824;28;20038;-76
2022/01/10 00:46:40;;;;;;;22.15;8.00;;;;;;;20.44;13.56;97374.00;4978301;28;20070;-76
2022/01/10 00:49:07;;;;;;;23.05;8.27;;;;;;;20.66;13.29;97377.97;4973210;28;20062;-76
2022/01/10 00:51:33;;;;;;;21.27;8.25;;;;;;;20.75;13.71;97377.41;4983817;28;20204;-76
2022/01/10 00:54:00;;;;;;;21.85;8.02;;;;;;;20.08;13.75;97382.19;4981896;28;20023;-76
2022/01/10 00:56:27;;;;;;;21.77;8.15;;;;;;;19.98;13.83;97383.94;4977236;28;20035;-76
2022/01/10 00:58:53;;;;;;;25.33;8.20;;;;;;;20.21;13.75;97387.94;4981831;28;20030;-76
2022/01/10 01:01:19;;;;;;;21.45;7.60;;;;;;;20.10;14.07;97395.69;4978305;28;20490;-76
2022/01/10 01:03:46;;;;;;;24.98;8.30;;;;;;;20.15;14.01;97398.00;4981035;28;20081;-76
2022/01/10 01:06:14;;;;;;;18.58;7.60;;;;;;;19.77;14.09;97400.97;4981269;28;20435;-76
2022/01/10 01:08:41;;;;;;;18.95;7.07;;;;;;;19.91;13.98;97395.19;4984629;28;20077;-76
2022/01/10 01:11:34;;;;;;;19.75;8.32;;;;;;;20.05;13.96;97396.94;4982231;28;20023;-76
2022/01/10 01:14:00;;;;;;;15.93;7.10;;;;;;;20.39;13.77;97392.03;4973006;28;20050;-76
2022/01/10 01:16:56;;;;;;;21.00;9.13;;;;;;;20.54;13.48;97403.69;4983487;28;20069;-77
2022/01/10 01:24:32;;;;;;;21.27;8.60;;;;;;;21.03;12.97;97401.94;4977588;28;20109;-76
2022/01/10 01:26:59;;;;;;;24.73;9.20;;;;;;;20.65;13.08;97410.63;4980945;28;20041;-76
2022/01/10 01:29:28;;;;;;;22.10;9.27;;;;;;;20.55;13.30;97410.84;4979180;28;20026;-76
2022/01/10 01:31:55;;;;;;;21.08;9.00;;;;;;;20.60;13.46;97413.94;4977876;28;22313;-76
2022/01/10 01:34:24;;;;;;;22.80;8.48;;;;;;;20.80;12.99;97408.38;4975123;28;20030;-76
2022/01/10 01:36:53;;;;;;;19.95;8.50;;;;;;;20.97;12.83;97414.81;4983086;28;20155;-76
2022/01/10 01:39:23;;;;;;;23.35;9.52;;;;;;;21.10;12.82;97415.78;4983094;28;20038;-76
2022/01/10 01:41:54;;;;;;;23.95;9.27;;;;;;;21.10;12.62;97416.56;4982696;28;20065;-76
2022/01/10 01:44:21;;;;;;;20.30;8.90;;;;;;;21.03;12.68;97430.63;4980274;28;20019;-76
2022/01/10 01:46:47;;;;;;;23.38;8.85;;;;;;;21.04;12.74;97428.63;4978365;28;20450;-76
2022/01/10 01:49:13;;;;;;;27.05;10.20;;;;;;;21.02;12.80;97429.06;4982486;28;20117;-76
2022/01/10 01:51:40;;;;;;;27.83;10.48;;;;;;;21.00;12.68;97434.31;4978257;28;20037;-76
2022/01/10 01:54:08;;;;;;;23.67;9.82;;;;;;;20.98;12.92;97431.13;4977548;28;20034;-76
2022/01/10 01:56:34;;;;;;;21.75;9.40;;;;;;;21.03;12.63;97436.22;4979356;28;20487;-76
2022/01/10 01:59:01;;;;;;;24.73;9.98;;;;;;;21.07;12.71;97436.19;4976434;28;20541;-75
2022/01/10 02:01:28;;;;;;;32.08;11.07;;;;;;;20.87;12.70;97438.94;4980100;28;20462;-75
2022/01/10 02:03:54;;;;;;;31.40;9.63;;;;;;;20.52;12.98;97434.78;4985196;28;20498;-75
2022/01/10 02:06:20;;;;;;;28.58;9.65;;;;;;;20.22;13.26;97437.72;4980988;28;20031;-75
2022/01/10 02:08:46;;;;;;;22.98;9.35;;;;;;;20.35;13.42;97435.88;4982407;28;20114;-76
2022/01/10 02:11:14;;;;;;;23.70;9.90;;;;;;;20.24;13.18;97445.63;4978752;28;20474;-76
2022/01/10 02:13:43;;;;;;;28.40;12.10;;;;;;;20.09;13.37;97449.84;4976173;28;20038;-75
2022/01/10 02:16:11;;;;;;;33.92;12.63;;;;;;;20.04;13.41;97455.91;4977914;28;20039;-76
2022/01/10 02:18:38;;;;;;;33.92;13.63;;;;;;;19.94;13.58;97446.50;4976793;28;20035;-76
2022/01/10 02:21:05;;;;;;;31.98;12.60;;;;;;;19.97;13.47;97448.44;4985163;28;20413;-76
2022/01/10 02:23:32;;;;;;;32.33;13.35;;;;;;;20.16;13.43;97455.31;4977140;28;20039;-76
2022/01/10 02:26:00;;;;;;;35.55;12.68;;;;;;;20.39;13.56;97453.38;4978651;28;20109;-76
2022/01/10 02:28:27;;;;;;;29.50;11.35;;;;;;;20.31;13.41;97457.47;4976008;28;20481;-76
2022/01/10 02:30:57;;;;;;;24.08;11.38;;;;;;;20.20;13.44;97459.63;4974756;28;20042;-75
2022/01/10 02:33:29;;;;;;;32.63;12.93;;;;;;;19.66;13.78;97453.28;4983564;28;20075;-75
2022/01/10 02:38:33;;;;;;;41.70;15.90;;;;;;;19.55;13.93;97469.34;4970613;28;20542;-76
2022/01/10 02:40:59;;;;;;;38.50;15.52;;;;;;;19.38;14.08;97464.78;4974167;28;20054;-76
2022/01/10 02:43:26;;;;;;;33.00;14.63;;;;;;;19.48;14.04;97472.22;4975878;28;20441;-76
2022/01/10 02:45:53;;;;;;;43.10;16.63;;;;;;;19.70;13.83;97476.28;4975475;28;20026;-76
2022/01/10 02:48:20;;;;;;;46.30;16.98;;;;;;;19.96;13.51;97483.88;4978543;28;20070;-76
2022/01/10 02:50:46;;;;;;;45.25;17.15;;;;;;;20.22;13.31;97479.53;4979858;28;20042;-76
2022/01/10 02:53:12;;;;;;;37.97;16.73;;;;;;;20.37;12.94;97486.47;4976631;28;20038;-76
2022/01/10 02:55:38;;;;;;;40.70;16.83;;;;;;;20.34;13.01;97489.28;4978450;28;20029;-76
2022/01/10 02:58:04;;;;;;;37.08;15.60;;;;;;;20.36;12.94;97489.66;4979238;28;20038;-76
2022/01/10 03:00:30;;;;;;;40.67;16.60;;;;;;;20.43;12.79;97495.91;4973936;28;20376;-76
2022/01/10 03:02:58;;;;;;;34.50;14.63;;;;;;;20.52;13.31;97495.34;4973948;28;20035;-76
2022/01/10 03:05:25;;;;;;;42.97;16.70;;;;;;;20.54;13.09;97493.72;4972778;28;20035;-76
2022/01/10 03:07:54;;;;;;;41.70;16.80;;;;;;;20.49;13.23;97497.00;4982304;28;20450;-75
2022/01/10 03:10:21;;;;;;;36.90;15.57;;;;;;;20.53;13.27;97500.53;4968868;28;20034;-75
2022/01/10 03:12:48;;;;;;;33.85;14.68;;;;;;;20.53;12.73;97497.75;4988703;28;20113;-75
2022/01/10 03:15:14;;;;;;;45.83;16.20;;;;;;;20.46;13.08;97509.00;4985168;28;20398;-75
2022/01/10 03:17:40;;;;;;;35.10;15.35;;;;;;;20.57;12.91;97504.03;4966999;28;20043;-75
2022/01/10 03:20:08;;;;;;;43.85;18.00;;;;;;;20.53;12.75;97510.88;4982298;28;20474;-75
2022/01/10 03:22:34;;;;;;;37.90;17.83;;;;;;;20.29;13.04;97515.66;4983315;28;20045;-75
2022/01/10 03:25:00;;;;;;;40.47;17.33;;;;;;;20.13;12.98;97501.53;4987343;28;20034;-75
2022/01/10 03:27:27;;;;;;;46.55;17.30;;;;;;;19.94;13.59;97516.16;4976531;28;20379;-75
2022/01/10 03:29:53;;;;;;;36.78;14.25;;;;;;;20.01;12.92;97510.47;4979958;28;20050;-75
2022/01/10 03:32:20;;;;;;;42.20;16.08;;;;;;;20.05;13.02;97519.56;4979883;28;20041;-75
2022/01/10 03:34:46;;;;;;;38.05;14.35;;;;;;;19.77;13.20;97525.53;4979635;28;20042;-75
2022/01/10 03:37:12;;;;;;;39.28;15.38;;;;;;;19.66;13.34;97528.47;4976322;28;20034;-75
2022/01/10 03:39:38;;;;;;;38.47;16.17;;;;;;;19.12;14.00;97532.25;4977269;28;20035;-75
2022/01/10 03:42:04;;;;;;;36.72;15.52;;;;;;;19.19;13.95;97526.63;4979818;28;20035;-76
2022/01/10 03:44:31;;;;;;;30.42;13.07;;;;;;;19.16;13.97;97528.22;4974132;28;20027;-76
2022/01/10 03:46:57;;;;;;;36.15;13.85;;;;;;;18.84;14.35;97532.53;4971873;28;20039;-75
2022/01/10 03:49:24;;;;;;;34.00;14.30;;;;;;;18.73;14.22;97532.66;4976846;28;20077;-75
2022/01/10 03:51:50;;;;;;;38.65;16.15;;;;;;;19.07;14.22;97546.63;4972877;28;20494;-76
2022/01/10 03:54:17;;;;;;;44.05;18.35;;;;;;;19.42;13.75;97549.03;4977629;28;20170;-76
2022/01/10 03:56:43;;;;;;;42.97;16.85;;;;;;;19.20;13.81;97556.84;4977807;28;20486;-76
2022/01/10 03:59:09;;;;;;;36.25;14.32;;;;;;;19.15;14.11;97560.06;4978651;28;20490;-76
2022/01/10 04:01:38;;;;;;;40.28;17.02;;;;;;;19.32;14.04;97559.06;4972906;28;20492;-76
2022/01/10 04:04:05;;;;;;;39.35;16.17;;;;;;;19.46;13.74;97566.53;4980341;28;20043;-76
2022/01/10 04:06:32;;;;;;;36.90;14.20;;;;;;;19.17;14.08;97565.19;4980981;28;20072;-76
2022/01/10 04:08:58;;;;;;;33.92;13.77;;;;;;;18.75;14.13;97568.38;4980790;28;20054;-76
2022/01/10 04:11:24;;;;;;;30.42;11.48;;;;;;;18.77;13.96;97554.88;4975989;28;20039;-76
2022/01/10 04:13:50;;;;;;;28.88;11.10;;;;;;;18.93;13.90;97569.81;4981291;28;20490;-76
2022/01/10 04:16:16;;;;;;;29.65;12.15;;;;;;;18.99;13.73;97579.31;4969536;28;20114;-77
2022/01/10 04:18:42;;;;;;;34.47;13.68;;;;;;;18.97;13.76;97580.91;4982015;28;20039;-76
2022/01/10 04:21:09;;;;;;;32.65;13.52;;;;;;;19.17;13.68;97582.69;4978279;28;20117;-76
2022/01/10 04:23:35;;;;;;;40.28;15.00;;;;;;;19.32;13.59;97583.34;4961562;28;20088;-76
2022/01/10 04:26:02;;;;;;;37.88;15.23;;;;;;;19.37;13.37;97593.28;4985157;28;20065;-76
2022/01/10 04:28:29;;;;;;;35.30;14.57;;;;;;;19.04;13.17;97597.53;4981990;28;20031;-76
2022/01/10 04:30:56;;;;;;;31.75;14.55;;;;;;;18.06;14.62;97605.38;4981798;28;20478;-76
2022/01/10 04:33:28;;;;;;;30.33;13.55;;;;;;;18.07;14.62;97609.72;4978952;28;20042;-76
2022/01/10 04:35:55;;;;;;;42.55;16.42;;;;;;;18.47;14.30;97602.78;4980150;28;20494;-76
2022/01/10 04:38:21;;;;;;;31.13;14.02;;;;;;;18.57;14.32;97602.72;4983051;28;20034;-76
2022/01/10 04:40:47;;;;;;;44.42;16.63;;;;;;;18.63;14.18;97609.41;4978428;28;20031;-76
2022/01/10 04:43:13;;;;;;;37.60;15.82;;;;;;;18.57;13.74;97616.63;4978841;28;20035;-76
2022/01/10 04:45:39;;;;;;;36.45;15.00;;;;;;;18.58;14.03;97620.94;4965450;28;20027;-76
2022/01/10 04:48:05;;;;;;;32.95;12.63;;;;;;;18.13;14.59;97624.00;4984644;28;20045;-76
2022/01/10 04:53:16;;;;;;;37.67;16.58;;;;;;;18.15;14.78;97625.19;4985761;28;20129;-76
2022/01/10 04:55:42;;;;;;;35.60;14.27;;;;;;;18.64;14.16;97635.22;4982140;28;20062;-76
2022/01/10 04:58:08;;;;;;;39.17;16.27;;;;;;;18.43;13.96;97644.47;4978476;28;20050;-76
2022/01/10 05:00:35;;;;;;;35.85;14.45;;;;;;;18.53;14.03;97645.59;4981637;28;20101;-76
2022/01/10 05:03:01;;;;;;;47.70;20.15;;;;;;;18.87;14.07;97648.56;4979672;28;20128;-76
2022/01/10 05:05:27;;;;;;;47.83;20.13;;;;;;;18.59;14.43;97650.34;4976376;28;20029;-76
2022/01/10 05:07:53;;;;;;;48.58;19.98;;;;;;;18.59;14.25;97644.78;4982880;28;20030;-75
2022/01/10 05:10:19;;;;;;;57.88;20.63;;;;;;;18.87;14.31;97652.13;4973008;28;20082;-76
2022/01/10 05:12:45;;;;;;;38.78;16.58;;;;;;;18.00;14.18;97665.31;4980941;28;20035;-76
2022/01/10 05:15:11;;;;;;;42.95;17.88;;;;;;;17.33;15.41;97664.69;4982868;28;20402;-75
2022/01/10 05:17:38;;;;;;;53.47;20.55;;;;;;;15.71;16.95;97677.03;4972667;28;20442;-76
2022/01/10 05:20:06;;;;;;;49.28;20.65;;;;;;;15.96;16.71;97674.41;4978753;28;20043;-76
2022/01/10 05:22:32;;;;;;;55.65;22.42;;;;;;;12.83;20.14;97680.97;4982386;28;20088;-76
2022/01/10 05:24:58;;;;;;;59.65;23.70;;;;;;;12.40;21.13;97689.63;4978290;28;20030;-76
2022/01/10 05:27:24;;;;;;;61.35;23.83;;;;;;;12.88;20.58;97694.41;4981982;28;20042;-76
2022/01/10 05:29:51;;;;;;;63.78;24.50;;;;;;;14.97;18.30;97698.66;4978257;28;20034;-76
2022/01/10 05:32:17;;;;;;;53.55;21.30;;;;;;;16.41;17.14;97700.66;4981516;28;20035;-76
2022/01/10 05:34:43;;;;;;;55.55;22.40;;;;;;;17.41;15.68;97707.91;4980792;28;20062;-75
2022/01/10 05:37:09;;;;;;;47.60;21.23;;;;;;;18.14;14.74;97712.50;4982971;28;20037;-76
2022/01/10 05:39:35;;;;;;;53.40;23.10;;;;;;;18.61;14.37;97723.03;4983075;28;20049;-76
2022/01/10 05:42:02;;;;;;;51.08;19.92;;;;;;;18.11;14.32;97729.19;4980214;28;20109;-76
2022/01/10 05:44:28;;;;;;;48.05;19.92;;;;;;;15.57;16.54;97735.06;4980903;28;20097;-76
2022/01/10 05:46:54;;;;;;;53.90;20.00;;;;;;;15.61;16.83;97735.88;4975245;28;20031;-76
2022/01/10 05:49:26;;;;;;;41.85;19.73;;;;;;;16.36;16.35;97729.53;4975376;28;20118;-76
2022/01/10 05:51:53;;;;;;;59.40;24.17;;;;;;;17.32;15.33;97736.03;4974431;28;20483;-76
2022/01/10 05:54:19;;;;;;;53.40;21.52;;;;;;;17.93;14.77;97757.00;4978183;28;20041;-76
2022/01/10 05:56:45;;;;;;;53.70;21.90;;;;;;;18.50;14.11;97768.75;4970142;28;20031;-76
2022/01/10 05:59:11;;;;;;;55.78;22.23;;;;;;;18.97;13.57;97770.09;4974785;28;20043;-76
2022/01/10 06:01:37;;;;;;;54.55;19.83;;;;;;;19.02;13.33;97780.78;4985648;28;20469;-76
2022/01/10 06:04:03;;;;;;;49.92;22.10;;;;;;;19.00;13.79;97780.38;4976562;28;20045;-76
2022/01/10 06:06:29;;;;;;;56.65;23.17;;;;;;;18.74;13.71;97784.50;4974019;28;20125;-76
2022/01/10 06:08:55;;;;;;;52.25;21.27;;;;;;;18.79;13.95;97795.22;4974800;28;20045;-76
2022/01/10 06:11:21;;;;;;;55.50;22.48;;;;;;;18.73;14.14;97790.47;4972606;28;20109;-76
2022/01/10 06:13:47;;;;;;;58.78;23.38;;;;;;;18.82;14.06;97799.97;4975970;28;20034;-75
2022/01/10 06:16:15;;;;;;;56.22;23.08;;;;;;;18.82;13.74;97801.94;4976746;28;20031;-76
2022/01/10 06:18:41;;;;;;;58.63;23.52;;;;;;;18.60;13.88;97804.03;4978196;28;20054;-76
2022/01/10 06:21:08;;;;;;;50.35;20.27;;;;;;;18.58;14.26;97812.78;4972216;28;20031;-76
2022/01/10 06:23:34;;;;;;;51.78;20.70;;;;;;;18.80;13.87;97815.47;4972709;28;20054;-76
2022/01/10 06:26:00;;;;;;;56.08;23.02;;;;;;;18.94;13.58;97823.75;4976147;28;20077;-76
2022/01/10 06:28:26;;;;;;;57.22;22.95;;;;;;;18.73;13.62;97832.19;4980062;28;20038;-78
2022/01/10 06:30:52;;;;;;;54.95;23.17;;;;;;;18.78;13.50;97834.56;4971278;28;20030;-77
2022/01/10 06:33:18;;;;;;;57.88;23.52;;;;;;;18.90;13.46;97837.69;4976499;28;20042;-77
2022/01/10 06:35:44;;;;;;;56.53;23.63;;;;;;;18.90;13.37;97846.03;4972917;28;20038;-77
2022/01/10 06:38:10;;;;;;;54.67;22.27;;;;;;;18.95;13.22;97856.72;4974446;28;20039;-77
2022/01/10 06:40:36;;;;;;;51.10;20.05;;;;;;;19.09;13.34;97862.22;4975303;28;20117;-77
2022/01/10 06:43:04;;;;;;;50.80;22.25;;;;;;;19.14;12.86;97866.56;4973325;28;20073;-77
2022/01/10 06:45:30;;;;;;;55.20;21.30;;;;;;;18.78;13.05;97870.72;4974041;28;20066;-77
2022/01/10 06:47:57;;;;;;;50.70;21.92;;;;;;;18.92;13.27;97873.44;4979586;28;20391;-77
2022/01/10 06:50:23;;;;;;;53.80;23.95;;;;;;;19.07;13.15;97877.72;4967630;28;20027;-77
2022/01/10 06:52:51;;;;;;;53.42;20.77;;;;;;;19.23;13.36;97889.16;4974392;28;20038;-77
2022/01/10 06:55:17;;;;;;;51.72;23.27;;;;;;;19.33;13.07;97883.56;4969163;28;20039;-77
2022/01/10 06:57:43;;;;;;;53.42;22.60;;;;;;;19.41;13.27;97892.69;4969855;28;20097;-77
2022/01/10 07:00:10;;;;;;;76.95;28.10;;;;;;;19.39;13.59;97895.09;4968243;28;20491;-77
2022/01/10 07:02:36;;;;;;;62.65;24.90;;;;;;;19.05;13.53;97899.59;4965554;28;20039;-77
2022/01/10 07:05:02;;;;;;;64.72;26.83;;;;;;;18.59;14.19;97908.13;4966181;28;20073;-77
2022/01/10 07:07:28;;;;;;;58.55;22.27;;;;;;;18.35;14.30;97909.72;4970456;28;20479;-77
2022/01/10 07:09:54;;;;;;;54.00;21.20;;;;;;;17.13;15.12;97917.53;4969114;28;20376;-77
2022/01/10 07:12:20;;;;;;;59.72;23.77;;;;;;;16.36;15.83;97919.91;4969545;28;20035;-77
2022/01/10 07:14:46;;;;;;;53.30;22.17;;;;;;;15.53;16.74;97933.47;4965855;28;20046;-77
2022/01/10 07:17:12;;;;;;;50.20;20.65;;;;;;;15.09;17.21;97935.31;4965856;28;20047;-78
2022/01/10 07:19:38;;;;;;;62.25;26.35;;;;;;;12.94;20.00;97940.09;4964623;28;20038;-77
2022/01/10 07:22:05;;;;;;;66.90;29.48;;;;;;;11.84;21.66;97944.31;4970450;28;20035;-78
2022/01/10 07:24:32;;;;;;;52.15;22.75;;;;;;;11.43;22.23;97951.91;4969838;28;20039;-77
2022/01/10 07:26:58;;;;;;;63.75;25.15;;;;;;;11.09;22.85;97964.34;4969459;28;20053;-78
2022/01/10 07:29:24;;;;;;;67.40;24.33;;;;;;;10.42;23.62;97967.06;4968496;28;20077;-77
2022/01/10 07:31:50;;;;;;;67.57;28.23;;;;;;;9.08;26.30;97972.78;4962902;28;20043;-77
2022/01/10 07:34:17;;;;;;;72.53;29.95;;;;;;;9.14;25.92;97969.47;4967753;28;20046;-78
2022/01/10 07:36:43;;;;;;;69.65;27.52;;;;;;;9.51;25.90;97973.09;4969870;28;20038;-77
2022/01/10 07:39:10;;;;;;;77.85;32.35;;;;;;;8.52;27.28;97987.91;4969901;28;20042;-77
2022/01/10 07:41:36;;;;;;;71.28;28.80;;;;;;;10.80;24.05;97994.09;4977430;28;20073;-78
2022/01/10 07:44:03;;;;;;;75.45;29.25;;;;;;;10.59;24.02;97991.53;4972871;28;20105;-77
2022/01/10 07:46:29;;;;;;;79.32;32.85;;;;;;;10.95;23.65;97998.84;4971029;28;20064;-77
2022/01/10 07:48:55;;;;;;;68.22;27.90;;;;;;;11.36;23.29;97994.91;4974687;28;20196;-77
2022/01/10 07:51:23;;;;;;;81.68;33.05;;;;;;;10.17;24.97;97996.50;4967433;28;20031;-77
2022/01/10 07:53:49;;;;;;;66.20;26.98;;;;;;;12.59;22.43;97989.75;4968992;28;20492;-78
2022/01/10 07:56:15;;;;;;;75.20;30.75;;;;;;;12.13;22.15;97996.13;4970529;28;20023;-78
2022/01/10 07:58:41;;;;;;;58.85;25.42;;;;;;;13.23;21.17;98002.94;4967641;28;20526;-77
2022/01/10 08:01:08;;;;;;;60.35;25.88;;;;;;;14.16;20.16;98011.72;4965943;28;20442;-78
2022/01/10 08:03:34;;;;;;;54.92;23.92;;;;;;;12.72;21.59;98020.72;4969483;28;20043;-78
2022/01/10 08:06:00;;;;;;;69.75;25.95;;;;;;;13.11;21.07;98025.94;4971822;28;20475;-78
2022/01/10 08:08:26;;;;;;;74.57;29.88;;;;;;;11.46;23.13;98035.63;4971525;28;20112;-78
2022/01/10 08:10:52;;;;;;;61.08;26.52;;;;;;;11.47;23.42;98042.69;4969095;28;20090;-77
2022/01/10 08:13:19;;;;;;;71.78;31.00;;;;;;;10.24;24.78;98053.53;4972822;28;20046;-78
2022/01/10 08:15:45;;;;;;;81.97;31.17;;;;;;;9.18;26.35;98062.72;4968887;28;20041;-78
2022/01/10 08:18:11;;;;;;;74.35;31.25;;;;;;;9.50;25.97;98064.66;4969484;28;20046;-78
2022/01/10 08:20:37;;;;;;;80.32;31.58;;;;;;;11.13;24.03;98069.63;4969250;28;20114;-78
2022/01/10 08:23:03;;;;;;;66.97;30.08;;;;;;;12.30;22.30;98068.09;4974581;28;20033;-79
2022/01/10 08:25:29;;;;;;;74.72;28.23;;;;;;;10.23;25.11;98071.91;4974275;28;20114;-78
2022/01/10 08:27:55;;;;;;;67.32;27.40;;;;;;;10.25;25.38;98086.09;4967864;28;20043;-78
2022/01/10 08:30:21;;;;;;;55.90;26.17;;;;;;;10.57;24.54;98080.84;4971089;28;20066;-79
2022/01/10 08:32:50;;;;;;;78.95;32.35;;;;;;;10.17;25.31;98089.75;4968350;28;20398;-78
2022/01/10 08:35:20;;;;;;;74.00;31.90;;;;;;;9.79;25.56;98100.16;4965976;28;20050;-78
2022/01/10 08:37:46;;;;;;;79.87;32.83;;;;;;;9.85;25.60;98106.22;4958546;28;20031;-78
2022/01/10 08:40:13;;;;;;;79.53;32.90;;;;;;;10.19;25.59;98111.34;4963099;28;20027;-78
2022/01/10 08:42:40;;;;;;;84.82;33.00;;;;;;;8.79;27.36;98113.25;4962360;28;20553;-79
2022/01/10 08:45:08;;;;;;;78.97;32.95;;;;;;;9.86;26.37;98119.59;4960407;28;20066;-77
2022/01/10 08:47:35;;;;;;;73.47;29.40;;;;;;;12.22;23.58;98117.84;4964931;28;20065;-76
2022/01/10 08:50:02;;;;;;;73.47;30.98;;;;;;;13.05;21.83;98112.81;4969532;28;20368;-77
2022/01/10 08:52:28;;;;;;;75.97;30.42;;;;;;;11.26;23.88;98113.56;4966512;28;20023;-77
2022/01/10 08:54:54;;;;;;;77.57;29.52;;;;;;;9.60;26.24;98130.00;4966606;28;20110;-77
2022/01/10 08:57:20;;;;;;;81.57;31.90;;;;;;;7.57;29.58;98135.88;4966126;28;20101;-77
2022/01/10 08:59:46;;;;;;;89.93;36.15;;;;;;;7.41;29.86;98140.25;4966691;28;20034;-77
2022/01/10 09:02:12;;;;;;;87.65;32.75;;;;;;;8.08;29.04;98142.34;4964461;28;20437;-77
2022/01/10 09:04:41;;;;;;;91.32;36.35;;;;;;;7.78;29.48;98144.22;4968296;28;20033;-77
2022/01/10 09:07:08;;;;;;;88.90;34.92;;;;;;;8.48;29.11;98145.63;4968440;28;20604;-77
2022/01/10 09:09:35;;;;;;;87.57;34.03;;;;;;;9.73;26.93;98142.63;4968708;28;21389;-77
2022/01/10 09:12:02;;;;;;;72.47;31.00;;;;;;;9.48;26.88;98151.88;4967820;28;20053;-77
2022/01/10 09:14:28;;;;;;;83.13;33.28;;;;;;;9.49;27.34;98150.75;4967717;28;20127;-77
2022/01/10 09:16:54;;;;;;;79.32;32.30;;;;;;;10.54;26.09;98148.19;4966824;28;20062;-77
2022/01/10 09:19:20;;;;;;;85.70;35.17;;;;;;;10.27;26.05;98149.66;4963666;28;20105;-77
2022/01/10 09:21:47;;;;;;;97.72;36.75;;;;;;;9.91;27.07;98159.72;4961564;28;20443;-77
2022/01/10 09:24:14;;;;;;;99.38;35.08;;;;;;;10.38;26.44;98166.47;4958699;28;20031;-77
2022/01/10 09:26:40;;;;;;;87.65;34.22;;;;;;;11.68;24.57;98162.34;4969258;28;20043;-77
2022/01/10 09:29:06;;;;;;;86.97;31.95;;;;;;;11.38;24.83;98158.31;4958146;28;20062;-77
2022/01/10 09:31:33;;;;;;;89.57;33.00;;;;;;;14.00;22.26;98157.34;4956209;28;20065;-77
2022/01/10 09:34:00;;;;;;;87.45;33.75;;;;;;;15.21;20.13;98148.00;4949360;28;20423;-77
2022/01/10 09:36:31;;;;;;;80.97;31.95;;;;;;;15.28;20.49;98161.13;4934983;28;20067;-78
2022/01/10 09:38:57;;;;;;;90.25;34.53;;;;;;;15.79;19.26;98152.00;4957055;28;20043;-78
2022/01/10 09:41:24;;;;;;;71.32;27.95;;;;;;;14.93;20.14;98166.94;4953966;28;20031;-77
2022/01/10 09:44:01;;;;;;;86.75;31.65;;;;;;;11.97;24.29;98174.94;4963561;28;20471;-77
2022/01/10 09:46:28;;;;;;;78.28;30.83;;;;;;;13.97;22.89;98167.16;4958970;28;20390;-77
2022/01/10 09:48:57;;;;;;;76.22;30.73;;;;;;;14.45;21.17;98165.72;4955693;28;20086;-77
2022/01/10 09:51:26;;;;;;;72.45;27.35;;;;;;;15.84;20.24;98164.72;4956932;28;20028;-77
2022/01/10 09:54:02;;;;;;;67.65;26.30;;;;;;;16.15;19.47;98157.94;4953715;28;20051;-77
2022/01/10 09:56:30;;;;;;;55.58;23.23;;;;;;;17.37;18.58;98160.22;4953818;28;20031;-77
2022/01/10 09:58:57;;;;;;;59.15;23.90;;;;;;;17.33;18.97;98164.16;4957149;28;20042;-78
2022/01/10 10:01:26;;;;;;;48.10;21.88;;;;;;;18.67;18.05;98159.19;4959233;28;20151;-77
2022/01/10 10:03:58;;;;;;;49.08;21.50;;;;;;;19.21;17.15;98165.13;4959537;28;20735;-77
2022/01/10 10:06:29;;;;;;;56.38;21.52;;;;;;;19.50;16.92;98157.56;4956968;28;20679;-77
2022/01/10 10:09:00;;;;;;;55.13;23.23;;;;;;;20.03;16.33;98165.72;4956740;28;20043;-76
2022/01/10 10:11:42;;;;;;;50.72;21.77;;;;;;;20.64;16.56;98172.59;4958420;28;20027;-77
2022/01/10 10:14:11;;;;;;;48.03;19.65;;;;;;;21.06;16.06;98165.94;4961785;28;20585;-77
2022/01/10 10:16:40;;;;;;;41.42;18.27;;;;;;;21.21;15.87;98173.00;4958167;28;20062;-77
2022/01/10 10:19:06;;;;;;;43.25;18.65;;;;;;;21.55;15.50;98176.66;4952533;28;20061;-77
2022/01/10 10:21:33;;;;;;;44.47;19.88;;;;;;;21.34;15.16;98174.06;4952261;28;20063;-77
2022/01/10 10:24:04;;;;;;;42.05;18.88;;;;;;;21.22;16.16;98171.78;4951160;28;20102;-77
2022/01/10 10:26:31;;;;;;;41.13;16.83;;;;;;;21.28;15.61;98184.88;4947766;28;20123;-76
2022/01/10 10:28:58;;;;;;;43.20;19.48;;;;;;;20.14;16.25;98185.22;4953055;28;20035;-77
2022/01/10 10:31:31;;;;;;;42.20;17.80;;;;;;;20.47;16.87;98184.66;4949000;28;20032;-77
2022/01/10 10:34:00;;;;;;;33.30;14.13;;;;;;;19.86;17.31;98181.31;4951194;28;20043;-77
2022/01/10 10:36:30;;;;;;;35.95;15.02;;;;;;;20.44;16.84;98189.03;4950689;28;20042;-77
2022/01/10 10:39:03;;;;;;;46.65;18.45;;;;;;;20.51;16.15;98196.59;4957017;28;20031;-77
2022/01/10 10:41:29;;;;;;;41.50;18.65;;;;;;;20.71;16.44;98188.50;4950599;28;20058;-77
2022/01/10 10:43:55;;;;;;;47.83;20.42;;;;;;;20.69;16.52;98200.06;4934358;28;20563;-77
2022/01/10 10:46:26;;;;;;;42.78;18.67;;;;;;;20.77;16.42;98209.97;4951914;28;20065;-77
2022/01/10 10:48:57;;;;;;;50.00;21.48;;;;;;;20.55;16.34;98216.91;4950835;28;20074;-77
2022/01/10 10:51:31;;;;;;;42.63;19.90;;;;;;;20.62;16.73;98216.84;4944085;28;20111;-77
2022/01/10 10:54:09;;;;;;;46.80;20.65;;;;;;;20.77;16.53;98221.13;4947354;28;20041;-77
2022/01/10 10:56:42;;;;;;;39.80;18.58;;;;;;;20.63;16.66;98222.00;4935203;28;20035;-77
2022/01/10 10:59:08;;;;;;;44.55;19.05;;;;;;;20.11;16.71;98227.81;4953481;28;20035;-77
2022/01/10 11:01:40;;;;;;;39.53;17.60;;;;;;;20.29;17.02;98225.78;4951580;28;20043;-77
2022/01/10 11:04:10;;;;;;;37.70;17.17;;;;;;;20.14;16.99;98221.44;4950545;28;20047;-77
2022/01/10 11:06:39;;;;;;;33.45;15.32;;;;;;;20.75;16.44;98226.31;4947704;28;20032;-77
2022/01/10 11:09:10;;;;;;;38.55;17.10;;;;;;;18.20;18.70;98235.28;4948817;28;20042;-77
2022/01/10 11:11:37;;;;;;;;;;;;;;;19.09;17.81;98234.31;4951321;28;20031;-77
2022/01/10 11:14:04;;;;;;;32.25;14.60;;;;;;;19.70;17.70;98231.09;4952927;28;19925;-77
2022/01/10 11:16:31;;;;;;;37.20;17.30;;;;;;;19.51;17.68;98230.75;4954819;28;20043;-78
2022/01/10 11:18:57;;;;;;;39.05;18.10;;;;;;;16.28;20.90;98239.59;4969161;28;20105;-77
2022/01/10 11:21:24;;;;;;;32.13;14.45;;;;;;;13.92;23.74;98246.66;4969579;28;20050;-77
2022/01/10 11:23:52;;;;;;;27.20;13.80;;;;;;;12.98;25.59;98255.91;4971515;28;20501;-77
2022/01/10 11:26:18;;;;;;;30.33;14.95;;;;;;;12.71;26.27;98269.75;4970723;28;20122;-77
2022/01/10 11:28:50;;;;;;;30.00;13.88;;;;;;;13.92;24.50;98260.47;4954450;28;20038;-76